メインページ
METAR-TAF:

METAR-TAF

空港 :

マプト国際空港

マプト, モザンビーク

緯度: 25-55S, 経度: 032-34E, 海抜: 39m

現時点の気象観測

当レポートは32分前の18:00(UTC)に作成
北東の風 5kt
気温 22°C
湿度 60%
気圧 1017 hPa
視程10km以上
1,500メートル以下は雲なし、積乱雲なし

METAR: FQMA 151800Z 04005KT CAVOK 22/14 Q1017 NOSIG

時間: 20:32 (18:32 UTC)

予報

当レポートは2時間32分前の16:00(UTC)に作成
予報は15日の 18時(UTC)から 16日の 24時(UTC)まで有効
北/北東の風 8kt
視程10km以上
高度2500ftの雲はほとんどない
16日の 06時(UTC)から 16日の 08時(UTC)まで徐々に
東/南東の風 10kt
視程10km以上
1,500メートル以下は雲なし、積乱雲なし
16日の 12時(UTC)から 16日の 14時(UTC)まで徐々に
北/北東の風 8kt

TAF: FQMA 151600Z 1518/1624 03008KT 9999 FEW025 BECMG 1606/1608 12010KT CAVOK BECMG 1612/1614 03008KT TX31/1613Z TN18/1603Z

4,000以上の空港の気象観測と天気予報(METAR報とTAF報)

利用可能な観測所は地図上に黄色い丸と赤い丸で示す。

丸の上にカーソルを重ねると観測所名を参照できる。

次にクリックすると気象観測と天気予報を参照できる。

マップの切り替え:黒色「×」印の緑ボタンをクリックして拡大、「-」印の緑ボタンをクリックして縮小、緑色の三角印をクリックして隣りの地図に切り替え


METAR-TAF: